createdAt,value
2018-07-21T00:00:33.316Z,1.70
2018-07-21T00:03:01.662Z,1.82
2018-07-21T00:05:30.075Z,1.67
2018-07-21T00:07:58.393Z,1.62
2018-07-21T00:10:26.752Z,2.10
2018-07-21T00:12:55.073Z,1.75
2018-07-21T00:15:23.408Z,1.70
2018-07-21T00:17:51.789Z,1.80
2018-07-21T00:20:20.110Z,1.92
2018-07-21T00:22:48.417Z,1.70
2018-07-21T00:25:16.814Z,1.77
2018-07-21T00:27:45.140Z,1.90
2018-07-21T00:30:13.469Z,1.52
2018-07-21T00:32:41.854Z,1.67
2018-07-21T00:35:10.200Z,2.02
2018-07-21T00:37:38.556Z,1.62
2018-07-21T00:40:06.911Z,1.35
2018-07-21T00:42:35.260Z,1.75
2018-07-21T00:45:03.613Z,1.98
2018-07-21T00:47:32.029Z,2.08
2018-07-21T00:50:00.586Z,2.00
2018-07-21T00:52:28.905Z,2.37
2018-07-21T00:54:57.312Z,1.50
2018-07-21T00:57:25.632Z,1.98
2018-07-21T00:59:53.979Z,2.00
2018-07-21T01:02:22.344Z,2.00
2018-07-21T01:04:50.654Z,2.20
2018-07-21T01:07:19.000Z,1.77
2018-07-21T01:09:47.344Z,2.30
2018-07-21T01:12:15.698Z,2.13
2018-07-21T01:14:44.036Z,1.60
2018-07-21T01:17:12.491Z,2.10
2018-07-21T01:19:40.811Z,1.90
2018-07-21T01:22:09.151Z,2.13
2018-07-21T01:24:37.594Z,2.08
2018-07-21T01:27:05.987Z,1.90
2018-07-21T01:29:34.349Z,1.67
2018-07-21T01:32:02.721Z,1.60
2018-07-21T01:34:31.057Z,1.87
2018-07-21T01:36:59.440Z,1.98
2018-07-21T01:39:27.765Z,1.62
2018-07-21T01:41:56.206Z,1.97
2018-07-21T01:44:24.555Z,1.75
2018-07-21T01:46:52.861Z,1.70
2018-07-21T01:49:21.166Z,1.77
2018-07-21T01:51:49.487Z,2.00
2018-07-21T01:54:17.799Z,1.70
2018-07-21T01:56:46.145Z,1.90
2018-07-21T01:59:14.469Z,1.70
2018-07-21T02:01:42.818Z,1.70
2018-07-21T02:04:11.145Z,1.70
2018-07-21T02:06:39.499Z,1.50
2018-07-21T02:09:09.149Z,2.10
2018-07-21T02:11:37.476Z,1.50
2018-07-21T02:14:05.830Z,2.53
2018-07-21T02:16:34.184Z,1.77
2018-07-21T02:19:02.570Z,2.05
2018-07-21T02:21:30.904Z,2.33
2018-07-21T02:23:59.274Z,1.92
2018-07-21T02:26:27.624Z,1.90
2018-07-21T02:28:55.929Z,1.90
2018-07-21T02:31:24.247Z,1.72
2018-07-21T02:33:52.541Z,2.10
2018-07-21T02:36:21.033Z,2.37
2018-07-21T02:38:49.341Z,1.72
2018-07-21T02:41:17.884Z,2.23
2018-07-21T02:43:46.199Z,1.90
2018-07-21T02:46:14.567Z,2.47
2018-07-21T02:48:42.922Z,2.40
2018-07-21T02:51:11.275Z,2.50
2018-07-21T02:53:39.574Z,2.60
2018-07-21T02:56:07.891Z,2.15
2018-07-21T02:58:36.202Z,2.15
2018-07-21T03:01:04.545Z,2.27
2018-07-21T03:03:33.053Z,2.77
2018-07-21T03:06:01.398Z,2.07
2018-07-21T03:08:29.751Z,2.23
2018-07-21T03:10:58.078Z,2.03
2018-07-21T03:13:26.189Z,2.13
2018-07-21T03:15:54.524Z,2.57
2018-07-21T03:18:22.896Z,2.53
2018-07-21T03:20:51.272Z,2.87
2018-07-21T03:23:19.694Z,2.70
2018-07-21T03:25:48.067Z,2.40
2018-07-21T03:28:16.411Z,2.73
2018-07-21T03:30:44.770Z,2.70
2018-07-21T03:33:13.200Z,2.23
2018-07-21T03:35:41.492Z,2.00
2018-07-21T03:38:09.867Z,2.23
2018-07-21T03:40:38.231Z,2.53
2018-07-21T03:43:06.621Z,2.50
2018-07-21T03:45:35.021Z,2.83
2018-07-21T03:48:03.365Z,2.47
2018-07-21T03:50:31.706Z,2.57
2018-07-21T03:53:00.063Z,2.33
2018-07-21T03:55:28.396Z,2.40
2018-07-21T03:57:56.727Z,2.70
2018-07-21T04:00:25.093Z,2.30
2018-07-21T04:02:53.443Z,2.97
2018-07-21T04:05:21.788Z,2.50
2018-07-21T04:07:50.133Z,2.70
2018-07-21T04:10:18.508Z,2.33
2018-07-21T04:12:46.834Z,2.13
2018-07-21T04:15:15.172Z,3.10
2018-07-21T04:17:43.577Z,2.77
2018-07-21T04:20:11.986Z,3.03
2018-07-21T04:22:40.391Z,2.58
2018-07-21T04:25:08.716Z,2.60
2018-07-21T04:27:37.093Z,2.33
2018-07-21T04:30:05.776Z,2.20
2018-07-21T04:32:34.138Z,2.33
2018-07-21T04:35:02.489Z,3.50
2018-07-21T04:37:30.858Z,5.20
2018-07-21T04:39:59.177Z,3.40
2018-07-21T04:42:27.555Z,2.65
2018-07-21T04:44:55.879Z,2.85
2018-07-21T04:47:24.222Z,2.17
2018-07-21T04:49:52.569Z,3.67
2018-07-21T04:52:20.898Z,8.78
2018-07-21T04:54:49.263Z,4.60
2018-07-21T04:57:17.588Z,3.27
2018-07-21T04:59:45.965Z,3.00
2018-07-21T05:02:14.288Z,2.72
2018-07-21T05:04:42.636Z,2.50
2018-07-21T05:07:10.935Z,2.47
2018-07-21T05:09:39.335Z,2.55
2018-07-21T05:12:07.383Z,2.67
2018-07-21T05:14:35.722Z,2.55
2018-07-21T05:17:04.099Z,2.45
2018-07-21T05:19:32.495Z,3.00
2018-07-21T05:22:00.848Z,2.75
2018-07-21T05:24:29.252Z,2.12
2018-07-21T05:26:57.725Z,2.65
2018-07-21T05:29:26.088Z,1.90
2018-07-21T05:31:54.456Z,1.80
2018-07-21T05:34:22.853Z,2.22
2018-07-21T05:36:51.234Z,2.37
2018-07-21T05:39:19.616Z,2.20
2018-07-21T05:41:47.942Z,1.87
2018-07-21T05:44:16.276Z,1.75
2018-07-21T05:46:44.598Z,2.10
2018-07-21T05:49:12.942Z,2.10
2018-07-21T05:51:41.308Z,1.75
2018-07-21T05:54:24.217Z,1.60
2018-07-21T05:56:52.546Z,2.35
2018-07-21T05:59:20.933Z,1.65
2018-07-21T06:01:49.279Z,1.42
2018-07-21T06:04:17.644Z,1.60
2018-07-21T06:06:46.004Z,1.37
2018-07-21T06:09:14.392Z,1.67
2018-07-21T06:11:42.753Z,1.77
2018-07-21T06:14:11.445Z,1.80
2018-07-21T06:16:39.827Z,2.60
2018-07-21T06:19:08.231Z,1.50
2018-07-21T06:21:36.628Z,1.27
2018-07-21T06:24:05.010Z,1.50
2018-07-21T06:26:33.383Z,1.55
2018-07-21T06:29:01.738Z,1.62
2018-07-21T06:31:30.070Z,1.62
2018-07-21T06:33:58.446Z,2.42
2018-07-21T06:36:26.815Z,1.85
2018-07-21T06:38:55.216Z,2.22
2018-07-21T06:41:23.643Z,1.30
2018-07-21T06:43:52.068Z,1.70
2018-07-21T06:46:20.408Z,1.80
2018-07-21T06:48:48.757Z,1.37
2018-07-21T06:51:17.098Z,1.60
2018-07-21T06:53:45.236Z,1.65
2018-07-21T06:56:13.612Z,2.00
2018-07-21T06:58:41.992Z,2.27
2018-07-21T07:01:10.382Z,2.00
2018-07-21T07:03:38.780Z,1.55
2018-07-21T07:06:07.246Z,2.05
2018-07-21T07:08:35.617Z,1.52
2018-07-21T07:11:03.935Z,1.52
2018-07-21T07:13:32.292Z,1.60
2018-07-21T07:16:00.632Z,1.52
2018-07-21T07:18:28.999Z,1.27
2018-07-21T07:20:57.344Z,1.40
2018-07-21T07:23:25.853Z,1.60
2018-07-21T07:25:54.188Z,1.47
2018-07-21T07:28:22.515Z,1.70
2018-07-21T07:30:50.886Z,1.55
2018-07-21T07:33:19.184Z,1.77
2018-07-21T07:35:47.569Z,1.37
2018-07-21T07:38:15.902Z,1.70
2018-07-21T07:40:44.282Z,1.77
2018-07-21T07:43:12.620Z,2.50
2018-07-21T07:45:40.992Z,2.20
2018-07-21T07:48:09.342Z,1.80
2018-07-21T07:50:37.688Z,1.70
2018-07-21T07:53:05.997Z,2.02
2018-07-21T07:55:34.568Z,1.35
2018-07-21T07:58:04.159Z,1.85
2018-07-21T08:00:32.788Z,1.37
2018-07-21T08:03:02.136Z,2.65
2018-07-21T08:05:30.746Z,1.95
2018-07-21T08:07:59.060Z,1.45
2018-07-21T08:10:27.908Z,1.90
2018-07-21T08:12:56.227Z,1.55
2018-07-21T08:15:24.585Z,1.77
2018-07-21T08:17:52.987Z,1.47
2018-07-21T08:20:21.346Z,1.55
2018-07-21T08:22:49.675Z,2.08
2018-07-21T08:25:18.027Z,1.72
2018-07-21T08:27:46.409Z,1.80
2018-07-21T08:30:14.776Z,1.98
2018-07-21T08:32:43.143Z,1.87
2018-07-21T08:35:11.554Z,1.45
2018-07-21T08:37:39.907Z,1.80
2018-07-21T08:40:09.018Z,2.08
2018-07-21T08:42:37.387Z,1.52
2018-07-21T08:45:06.307Z,1.75
2018-07-21T08:47:34.662Z,1.65
2018-07-21T08:50:03.018Z,1.85
2018-07-21T08:52:31.343Z,1.67
2018-07-21T08:54:59.724Z,1.87
2018-07-21T08:57:28.095Z,1.85
2018-07-21T08:59:56.470Z,1.55
2018-07-21T09:02:24.546Z,2.02
2018-07-21T09:04:52.651Z,1.90
2018-07-21T09:07:21.073Z,2.77
2018-07-21T09:09:49.375Z,2.40
2018-07-21T09:12:17.752Z,2.00
2018-07-21T09:14:49.205Z,1.92
2018-07-21T09:17:20.198Z,2.30
2018-07-21T09:19:49.612Z,2.40
2018-07-21T09:22:17.998Z,2.33
2018-07-21T09:24:46.637Z,2.00
2018-07-21T09:27:15.285Z,2.35
2018-07-21T09:29:43.780Z,2.27
2018-07-21T09:32:12.616Z,2.85
2018-07-21T09:34:41.060Z,2.70
2018-07-21T09:37:09.680Z,2.25
2018-07-21T09:39:38.051Z,2.15
2018-07-21T09:42:06.572Z,2.37
2018-07-21T09:44:34.928Z,2.50
2018-07-21T09:47:03.593Z,2.75
2018-07-21T09:49:31.940Z,2.33
2018-07-21T09:52:00.349Z,2.30
2018-07-21T09:54:28.690Z,2.33
2018-07-21T09:56:57.175Z,2.60
2018-07-21T09:59:25.611Z,2.42
2018-07-21T10:01:53.968Z,2.47
2018-07-21T10:04:29.085Z,2.35
2018-07-21T10:06:57.492Z,2.20
2018-07-21T10:09:25.857Z,2.08
2018-07-21T10:11:54.307Z,2.60
2018-07-21T10:14:22.680Z,2.47
2018-07-21T10:16:51.061Z,2.58
2018-07-21T10:19:19.426Z,2.95
2018-07-21T10:21:47.847Z,2.60
2018-07-21T10:25:22.438Z,2.92
2018-07-21T10:27:56.133Z,3.60
2018-07-21T10:30:24.454Z,3.08
2018-07-21T10:32:52.786Z,2.72
2018-07-21T10:35:21.201Z,2.37
2018-07-21T10:37:49.606Z,3.20
2018-07-21T10:40:18.010Z,3.40
2018-07-21T10:42:46.393Z,2.90
2018-07-21T10:45:14.740Z,2.80
2018-07-21T10:47:43.212Z,2.95
2018-07-21T10:50:11.640Z,2.98
2018-07-21T10:52:40.030Z,3.22
2018-07-21T10:55:08.416Z,3.15
2018-07-21T10:57:36.762Z,3.00
2018-07-21T11:00:05.695Z,2.85
2018-07-21T11:02:34.091Z,3.35
2018-07-21T11:05:02.484Z,3.35
2018-07-21T11:07:30.820Z,3.15
2018-07-21T11:09:59.158Z,3.30
2018-07-21T11:12:27.536Z,3.72
2018-07-21T11:14:55.892Z,3.00
2018-07-21T11:17:24.272Z,3.12
2018-07-21T11:19:52.623Z,3.27
2018-07-21T11:22:21.033Z,2.83
2018-07-21T11:24:49.396Z,2.75
2018-07-21T11:27:17.754Z,3.40
2018-07-21T11:29:46.085Z,3.27
2018-07-21T11:32:14.428Z,3.30
2018-07-21T11:34:42.810Z,3.52
2018-07-21T11:37:11.351Z,2.85
2018-07-21T11:39:39.678Z,3.10
2018-07-21T11:42:08.051Z,4.92
2018-07-21T11:44:36.456Z,3.77
2018-07-21T11:47:04.844Z,3.95
2018-07-21T11:49:33.204Z,3.50
2018-07-21T11:52:01.573Z,3.42
2018-07-21T11:54:29.974Z,3.47
2018-07-21T11:57:01.003Z,3.15
2018-07-21T11:59:29.984Z,3.52
2018-07-21T12:01:59.006Z,3.75
2018-07-21T12:04:28.048Z,3.52
2018-07-21T12:06:56.401Z,3.40
2018-07-21T12:09:25.054Z,3.35
2018-07-21T12:11:53.594Z,3.67
2018-07-21T12:14:24.125Z,3.40
2018-07-21T12:16:52.573Z,3.40
2018-07-21T12:19:21.057Z,3.37
2018-07-21T12:21:49.518Z,3.62
2018-07-21T12:24:18.127Z,3.58
2018-07-21T12:26:46.564Z,3.60
2018-07-21T12:29:15.005Z,3.10
2018-07-21T12:31:43.343Z,3.35
2018-07-21T12:34:11.793Z,3.47
2018-07-21T12:36:40.169Z,3.40
2018-07-21T12:39:09.564Z,3.80
2018-07-21T12:41:38.135Z,3.58
2018-07-21T12:44:06.536Z,3.35
2018-07-21T12:46:34.883Z,3.52
2018-07-21T12:49:03.515Z,3.87
2018-07-21T12:51:32.167Z,6.17
2018-07-21T12:54:00.536Z,3.72
2018-07-21T12:56:28.984Z,3.60
2018-07-21T12:58:57.397Z,3.45
2018-07-21T13:01:25.746Z,3.58
2018-07-21T13:03:54.149Z,3.10
2018-07-21T13:06:22.512Z,3.90
2018-07-21T13:08:50.896Z,3.77
2018-07-21T13:11:19.214Z,3.90
2018-07-21T13:13:47.631Z,3.80
2018-07-21T13:16:15.968Z,3.27
2018-07-21T13:18:44.383Z,7.58
2018-07-21T13:21:12.745Z,6.47
2018-07-21T13:23:41.131Z,3.98
2018-07-21T13:26:09.514Z,3.60
2018-07-21T13:28:37.881Z,3.70
2018-07-21T13:31:06.332Z,3.30
2018-07-21T13:33:34.749Z,3.30
2018-07-21T13:36:03.098Z,3.47
2018-07-21T13:38:31.484Z,3.62
2018-07-21T13:40:59.859Z,3.72
2018-07-21T13:43:28.293Z,3.67
2018-07-21T13:45:56.615Z,4.08
2018-07-21T13:48:24.974Z,3.70
2018-07-21T13:50:53.295Z,3.85
2018-07-21T13:53:21.664Z,4.30
2018-07-21T13:55:50.043Z,4.45
2018-07-21T13:58:18.403Z,3.98
2018-07-21T14:00:46.747Z,3.98
2018-07-21T14:03:15.103Z,4.00
2018-07-21T14:05:43.508Z,4.40
2018-07-21T14:08:11.614Z,4.37
2018-07-21T14:10:40.055Z,3.95
2018-07-21T14:13:08.540Z,4.30
2018-07-21T14:15:37.400Z,3.85
2018-07-21T14:18:06.015Z,3.62
2018-07-21T14:20:34.358Z,4.70
2018-07-21T14:23:02.749Z,3.95
2018-07-21T14:25:31.428Z,3.92
2018-07-21T14:27:59.873Z,4.47
2018-07-21T14:30:28.285Z,4.78
2018-07-21T14:32:56.618Z,4.53
2018-07-21T14:35:25.085Z,5.22
2018-07-21T14:37:53.477Z,5.65
2018-07-21T14:40:21.866Z,4.62
2018-07-21T14:42:50.317Z,4.28
2018-07-21T14:45:18.420Z,4.30
2018-07-21T14:47:46.784Z,3.47
2018-07-21T14:50:15.208Z,5.20
2018-07-21T14:52:43.545Z,5.65
2018-07-21T14:55:11.956Z,4.30
2018-07-21T14:57:40.320Z,4.35
2018-07-21T15:00:08.688Z,4.53
2018-07-21T15:02:37.051Z,4.08
2018-07-21T15:05:05.409Z,4.20
2018-07-21T15:07:33.757Z,4.08
2018-07-21T15:10:02.103Z,4.17
2018-07-21T15:12:30.425Z,4.12
2018-07-21T15:14:58.798Z,4.42
2018-07-21T15:17:27.209Z,3.75
2018-07-21T15:19:55.575Z,3.92
2018-07-21T15:22:23.920Z,4.35
2018-07-21T15:24:52.292Z,5.22
2018-07-21T15:27:20.696Z,4.42
2018-07-21T15:29:49.044Z,4.37
2018-07-21T15:32:17.392Z,4.87
2018-07-21T15:34:45.804Z,4.50
2018-07-21T15:37:14.135Z,3.65
2018-07-21T15:39:42.565Z,4.12
2018-07-21T15:42:10.878Z,4.20
2018-07-21T15:44:39.262Z,4.20
2018-07-21T15:47:07.688Z,3.95
2018-07-21T15:49:36.027Z,4.15
2018-07-21T15:52:04.373Z,3.95
2018-07-21T15:54:32.748Z,3.62
2018-07-21T15:57:01.095Z,4.30
2018-07-21T15:59:29.431Z,3.47
2018-07-21T16:01:57.778Z,3.90
2018-07-21T16:04:26.125Z,4.58
2018-07-21T16:06:54.495Z,3.80
2018-07-21T16:09:22.814Z,4.10
2018-07-21T16:11:51.153Z,3.47
2018-07-21T16:14:19.500Z,4.28
2018-07-21T16:16:47.913Z,4.45
2018-07-21T16:19:16.294Z,4.25
2018-07-21T16:21:44.653Z,3.72
2018-07-21T16:24:13.101Z,3.47
2018-07-21T16:26:41.471Z,4.65
2018-07-21T16:29:09.964Z,4.05
2018-07-21T16:31:38.391Z,4.80
2018-07-21T16:34:06.833Z,4.12
2018-07-21T16:36:35.248Z,3.83
2018-07-21T16:39:04.029Z,3.87
2018-07-21T16:41:32.427Z,3.98
2018-07-21T16:44:00.801Z,4.72
2018-07-21T16:46:29.158Z,5.20
2018-07-21T16:48:57.508Z,5.37
2018-07-21T16:51:25.945Z,4.47
2018-07-21T16:53:54.288Z,4.30
2018-07-21T16:56:22.640Z,4.12
2018-07-21T16:58:51.017Z,3.87
2018-07-21T17:01:19.098Z,4.35
2018-07-21T17:03:47.419Z,4.17
2018-07-21T17:06:15.945Z,4.47
2018-07-21T17:08:44.358Z,3.83
2018-07-21T17:11:12.712Z,3.90
2018-07-21T17:13:41.055Z,4.25
2018-07-21T17:16:09.428Z,4.00
2018-07-21T17:18:37.843Z,4.25
2018-07-21T17:21:06.269Z,4.37
2018-07-21T17:23:34.627Z,3.42
2018-07-21T17:26:03.044Z,4.30
2018-07-21T17:28:31.427Z,4.08
2018-07-21T17:30:59.761Z,4.53
2018-07-21T17:33:28.122Z,4.58
2018-07-21T17:35:56.503Z,3.90
2018-07-21T17:38:24.840Z,4.50
2018-07-21T17:40:53.263Z,3.95
2018-07-21T17:43:21.583Z,4.53
2018-07-21T17:45:49.981Z,4.53
2018-07-21T17:48:18.343Z,6.33
2018-07-21T17:50:46.708Z,5.47
2018-07-21T17:53:15.195Z,4.85
2018-07-21T17:55:43.657Z,3.85
2018-07-21T17:58:12.056Z,4.22
2018-07-21T18:00:40.420Z,3.92
2018-07-21T18:03:08.755Z,4.55
2018-07-21T18:05:37.120Z,3.95
2018-07-21T18:08:05.471Z,5.47
2018-07-21T18:10:33.800Z,5.58
2018-07-21T18:13:02.222Z,7.80
2018-07-21T18:15:30.601Z,4.10
2018-07-21T18:17:58.995Z,4.00
2018-07-21T18:20:27.320Z,4.28
2018-07-21T18:22:55.764Z,3.92
2018-07-21T18:25:24.195Z,4.42
2018-07-21T18:27:52.579Z,4.53
2018-07-21T18:30:20.922Z,4.78
2018-07-21T18:32:49.354Z,4.22
2018-07-21T18:35:17.732Z,4.05
2018-07-21T18:37:46.111Z,4.83
2018-07-21T18:40:22.020Z,4.45
2018-07-21T18:42:50.414Z,4.85
2018-07-21T18:45:18.830Z,4.40
2018-07-21T18:47:47.142Z,4.15
2018-07-21T18:50:15.498Z,4.42
2018-07-21T18:52:43.870Z,4.03
2018-07-21T18:55:12.220Z,4.85
2018-07-21T18:57:40.651Z,4.92
2018-07-21T19:00:09.079Z,4.53
2018-07-21T19:02:37.574Z,4.37
2018-07-21T19:05:06.271Z,4.00
2018-07-21T19:07:34.656Z,5.80
2018-07-21T19:10:03.025Z,5.22
2018-07-21T19:12:36.881Z,5.33
2018-07-21T19:15:05.311Z,5.05
2018-07-21T19:17:33.729Z,5.55
2018-07-21T19:20:07.511Z,8.58
2018-07-21T19:22:47.612Z,9.40
2018-07-21T19:25:21.235Z,6.67
2018-07-21T19:27:49.620Z,5.12
2018-07-21T19:30:17.946Z,4.62
2018-07-21T19:32:51.746Z,4.87
2018-07-21T19:35:20.097Z,5.05
2018-07-21T19:37:49.527Z,5.78
2018-07-21T19:40:19.387Z,6.47
2018-07-21T19:42:48.277Z,7.10
2018-07-21T19:45:16.881Z,6.05
2018-07-21T19:47:45.437Z,5.35
2018-07-21T19:50:13.772Z,5.05
2018-07-21T19:52:42.405Z,4.70
2018-07-21T19:55:11.211Z,5.60
2018-07-21T19:57:39.608Z,5.42
2018-07-21T20:00:07.985Z,6.10
2018-07-21T20:02:36.422Z,5.80
2018-07-21T20:05:04.814Z,6.08
2018-07-21T20:07:33.206Z,5.90
2018-07-21T20:10:01.632Z,5.58
2018-07-21T20:12:30.025Z,5.65
2018-07-21T20:14:58.480Z,5.03
2018-07-21T20:17:26.912Z,5.65
2018-07-21T20:19:55.036Z,5.08
2018-07-21T20:22:23.496Z,5.42
2018-07-21T20:24:51.884Z,4.72
2018-07-21T20:27:20.207Z,5.25
2018-07-21T20:29:48.633Z,4.90
2018-07-21T20:32:17.044Z,4.95
2018-07-21T20:34:45.508Z,5.92
2018-07-21T20:37:13.838Z,5.55
2018-07-21T20:39:42.280Z,6.95
2018-07-21T20:42:10.601Z,7.25
2018-07-21T20:44:38.970Z,5.87
2018-07-21T20:47:07.367Z,6.00
2018-07-21T20:49:35.838Z,5.47
2018-07-21T20:52:04.254Z,6.47
2018-07-21T20:54:32.637Z,6.15
2018-07-21T20:57:00.987Z,5.90
2018-07-21T20:59:29.348Z,5.62
2018-07-21T21:01:57.728Z,5.97
2018-07-21T21:04:26.113Z,5.50
2018-07-21T21:06:54.473Z,5.85
2018-07-21T21:09:22.879Z,5.90
2018-07-21T21:11:51.243Z,6.28
2018-07-21T21:14:19.600Z,5.58
2018-07-21T21:16:47.994Z,5.55
2018-07-21T21:19:16.360Z,5.50
2018-07-21T21:21:44.795Z,8.18
2018-07-21T21:24:13.176Z,6.90
2018-07-21T21:26:41.528Z,6.17
2018-07-21T21:29:09.908Z,6.62
2018-07-21T21:31:38.383Z,6.20
2018-07-21T21:34:06.893Z,6.40
2018-07-21T21:36:35.282Z,5.85
2018-07-21T21:39:06.095Z,6.47
2018-07-21T21:41:34.462Z,7.75
2018-07-21T21:44:03.040Z,6.00
2018-07-21T21:46:31.410Z,4.85
2018-07-21T21:48:59.785Z,5.50
2018-07-21T21:51:28.161Z,5.17
2018-07-21T21:53:56.552Z,5.08
2018-07-21T21:56:24.892Z,5.17
2018-07-21T21:58:53.535Z,5.10
2018-07-21T22:01:21.847Z,4.37
2018-07-21T22:03:54.374Z,5.40
2018-07-21T22:06:22.700Z,5.70
2018-07-21T22:08:51.066Z,5.30
2018-07-21T22:11:19.477Z,4.10
2018-07-21T22:13:47.626Z,5.78
2018-07-21T22:16:16.009Z,5.53
2018-07-21T22:18:44.392Z,5.08
2018-07-21T22:21:12.903Z,4.90
2018-07-21T22:23:41.228Z,5.85
2018-07-21T22:26:09.593Z,5.12
2018-07-21T22:28:37.915Z,5.03
2018-07-21T22:31:06.424Z,5.55
2018-07-21T22:33:34.790Z,5.10
2018-07-21T22:36:03.230Z,5.08
2018-07-21T22:38:31.589Z,5.30
2018-07-21T22:40:59.971Z,4.72
2018-07-21T22:43:28.492Z,5.05
2018-07-21T22:45:56.810Z,5.70
2018-07-21T22:48:25.206Z,5.00
2018-07-21T22:50:53.548Z,5.50
2018-07-21T22:53:21.960Z,5.20
2018-07-21T22:55:50.415Z,4.47
2018-07-21T22:58:18.742Z,4.72
2018-07-21T23:00:47.158Z,4.75
2018-07-21T23:03:15.490Z,4.53
2018-07-21T23:05:43.830Z,4.72
2018-07-21T23:08:12.215Z,5.15
2018-07-21T23:10:40.600Z,6.40
2018-07-21T23:13:08.934Z,6.00
2018-07-21T23:15:37.391Z,4.83
2018-07-21T23:18:05.805Z,5.50
2018-07-21T23:20:34.247Z,4.95
2018-07-21T23:23:02.619Z,4.45
2018-07-21T23:25:31.081Z,4.90
2018-07-21T23:27:59.453Z,5.60
2018-07-21T23:30:27.820Z,5.50
2018-07-21T23:32:56.163Z,4.60
2018-07-21T23:35:24.583Z,5.05
2018-07-21T23:37:52.941Z,4.08
2018-07-21T23:40:21.417Z,4.35
2018-07-21T23:42:49.738Z,4.80
2018-07-21T23:45:18.079Z,5.22
2018-07-21T23:47:46.395Z,4.70
2018-07-21T23:50:14.822Z,5.28
2018-07-21T23:52:43.187Z,4.85
2018-07-21T23:55:11.629Z,4.83
2018-07-21T23:57:40.078Z,4.12
